sensor_id;sensor_type;location;lat;lon;timestamp;P1;durP1;ratioP1;P2;durP2;ratioP2
42146;SDS011;27815;43.410;11.852;2024-03-23T00:52:32;11.45;;;5.63;;
42146;SDS011;27815;43.410;11.852;2024-03-23T00:56:34;9.30;;;5.20;;
42146;SDS011;27815;43.410;11.852;2024-03-23T01:00:36;9.75;;;5.05;;
42146;SDS011;27815;43.410;11.852;2024-03-23T01:04:38;10.32;;;5.93;;
42146;SDS011;27815;43.410;11.852;2024-03-23T01:08:39;11.93;;;7.18;;
42146;SDS011;27815;43.410;11.852;2024-03-23T01:12:41;8.63;;;5.38;;
42146;SDS011;27815;43.410;11.852;2024-03-23T01:16:43;9.30;;;6.18;;
42146;SDS011;27815;43.410;11.852;2024-03-23T01:20:45;10.43;;;5.38;;
42146;SDS011;27815;43.410;11.852;2024-03-23T01:24:47;9.40;;;5.82;;
42146;SDS011;27815;43.410;11.852;2024-03-23T01:28:49;9.48;;;5.70;;
42146;SDS011;27815;43.410;11.852;2024-03-23T01:32:51;10.82;;;6.15;;
42146;SDS011;27815;43.410;11.852;2024-03-23T01:36:53;12.20;;;7.38;;
42146;SDS011;27815;43.410;11.852;2024-03-23T01:40:58;13.88;;;8.57;;
42146;SDS011;27815;43.410;11.852;2024-03-23T01:45:00;10.85;;;6.97;;
42146;SDS011;27815;43.410;11.852;2024-03-23T01:49:02;11.48;;;7.18;;
42146;SDS011;27815;43.410;11.852;2024-03-23T01:53:05;13.18;;;7.47;;
42146;SDS011;27815;43.410;11.852;2024-03-23T01:57:08;11.98;;;6.53;;
42146;SDS011;27815;43.410;11.852;2024-03-23T02:01:10;9.48;;;6.13;;
42146;SDS011;27815;43.410;11.852;2024-03-23T02:05:12;11.75;;;6.97;;
42146;SDS011;27815;43.410;11.852;2024-03-23T02:09:15;11.77;;;8.15;;
42146;SDS011;27815;43.410;11.852;2024-03-23T02:13:19;12.55;;;8.63;;
42146;SDS011;27815;43.410;11.852;2024-03-23T02:17:21;14.82;;;10.15;;
42146;SDS011;27815;43.410;11.852;2024-03-23T02:21:24;15.43;;;9.93;;
42146;SDS011;27815;43.410;11.852;2024-03-23T02:25:26;18.40;;;10.65;;
42146;SDS011;27815;43.410;11.852;2024-03-23T02:29:28;14.18;;;8.55;;
42146;SDS011;27815;43.410;11.852;2024-03-23T02:33:30;19.50;;;10.90;;
42146;SDS011;27815;43.410;11.852;2024-03-23T02:37:33;17.73;;;11.43;;
42146;SDS011;27815;43.410;11.852;2024-03-23T02:41:35;16.88;;;11.10;;
42146;SDS011;27815;43.410;11.852;2024-03-23T02:45:38;19.00;;;11.57;;
42146;SDS011;27815;43.410;11.852;2024-03-23T02:49:41;18.88;;;12.00;;
42146;SDS011;27815;43.410;11.852;2024-03-23T02:53:43;17.30;;;10.75;;
42146;SDS011;27815;43.410;11.852;2024-03-23T02:57:46;20.00;;;10.98;;
42146;SDS011;27815;43.410;11.852;2024-03-23T03:01:48;18.42;;;12.05;;
42146;SDS011;27815;43.410;11.852;2024-03-23T03:05:54;21.45;;;13.18;;
42146;SDS011;27815;43.410;11.852;2024-03-23T03:09:57;17.95;;;11.32;;
42146;SDS011;27815;43.410;11.852;2024-03-23T03:13:59;17.80;;;11.57;;
42146;SDS011;27815;43.410;11.852;2024-03-23T03:18:01;15.82;;;11.13;;
42146;SDS011;27815;43.410;11.852;2024-03-23T03:22:03;17.98;;;10.80;;
42146;SDS011;27815;43.410;11.852;2024-03-23T03:26:05;16.38;;;10.73;;
42146;SDS011;27815;43.410;11.852;2024-03-23T03:30:07;19.50;;;12.27;;
42146;SDS011;27815;43.410;11.852;2024-03-23T03:34:09;20.98;;;13.25;;
42146;SDS011;27815;43.410;11.852;2024-03-23T03:38:11;21.15;;;12.95;;
42146;SDS011;27815;43.410;11.852;2024-03-23T03:42:13;17.92;;;11.90;;
42146;SDS011;27815;43.410;11.852;2024-03-23T03:46:15;18.40;;;11.23;;
42146;SDS011;27815;43.410;11.852;2024-03-23T03:50:17;22.77;;;13.00;;
42146;SDS011;27815;43.410;11.852;2024-03-23T03:54:19;19.50;;;12.07;;
42146;SDS011;27815;43.410;11.852;2024-03-23T03:58:21;16.05;;;10.45;;
42146;SDS011;27815;43.410;11.852;2024-03-23T04:02:23;18.33;;;11.20;;
42146;SDS011;27815;43.410;11.852;2024-03-23T04:06:25;20.13;;;12.45;;
42146;SDS011;27815;43.410;11.852;2024-03-23T04:10:27;21.40;;;12.80;;
42146;SDS011;27815;43.410;11.852;2024-03-23T04:14:29;18.92;;;11.30;;
42146;SDS011;27815;43.410;11.852;2024-03-23T04:18:31;17.67;;;12.45;;
42146;SDS011;27815;43.410;11.852;2024-03-23T04:22:32;21.80;;;13.32;;
42146;SDS011;27815;43.410;11.852;2024-03-23T04:26:40;22.33;;;13.95;;
42146;SDS011;27815;43.410;11.852;2024-03-23T04:30:42;18.83;;;12.13;;
42146;SDS011;27815;43.410;11.852;2024-03-23T04:34:44;19.90;;;12.93;;
42146;SDS011;27815;43.410;11.852;2024-03-23T04:38:46;19.65;;;12.35;;
42146;SDS011;27815;43.410;11.852;2024-03-23T04:42:51;24.77;;;13.88;;
42146;SDS011;27815;43.410;11.852;2024-03-23T04:46:53;23.30;;;11.75;;
42146;SDS011;27815;43.410;11.852;2024-03-23T04:50:55;20.35;;;11.88;;
42146;SDS011;27815;43.410;11.852;2024-03-23T04:54:58;20.48;;;13.27;;
42146;SDS011;27815;43.410;11.852;2024-03-23T04:59:00;19.30;;;13.57;;
42146;SDS011;27815;43.410;11.852;2024-03-23T05:03:03;19.80;;;12.63;;
42146;SDS011;27815;43.410;11.852;2024-03-23T05:07:05;20.10;;;11.32;;
42146;SDS011;27815;43.410;11.852;2024-03-23T05:11:08;20.77;;;11.48;;
42146;SDS011;27815;43.410;11.852;2024-03-23T05:15:09;17.35;;;10.95;;
42146;SDS011;27815;43.410;11.852;2024-03-23T05:19:11;20.55;;;13.10;;
42146;SDS011;27815;43.410;11.852;2024-03-23T05:23:13;21.83;;;12.30;;
42146;SDS011;27815;43.410;11.852;2024-03-23T05:27:15;18.50;;;11.15;;
42146;SDS011;27815;43.410;11.852;2024-03-23T05:31:23;21.55;;;12.60;;
42146;SDS011;27815;43.410;11.852;2024-03-23T05:35:26;25.58;;;14.13;;
42146;SDS011;27815;43.410;11.852;2024-03-23T05:39:28;26.83;;;15.18;;
42146;SDS011;27815;43.410;11.852;2024-03-23T05:43:30;22.98;;;14.35;;
42146;SDS011;27815;43.410;11.852;2024-03-23T05:47:32;25.10;;;14.95;;
42146;SDS011;27815;43.410;11.852;2024-03-23T05:51:34;25.33;;;16.33;;
42146;SDS011;27815;43.410;11.852;2024-03-23T05:55:36;22.73;;;14.35;;
42146;SDS011;27815;43.410;11.852;2024-03-23T05:59:38;25.58;;;15.13;;
42146;SDS011;27815;43.410;11.852;2024-03-23T06:03:40;19.48;;;12.23;;
42146;SDS011;27815;43.410;11.852;2024-03-23T06:07:42;22.27;;;12.63;;
42146;SDS011;27815;43.410;11.852;2024-03-23T06:11:44;20.95;;;13.15;;
42146;SDS011;27815;43.410;11.852;2024-03-23T06:15:46;32.03;;;17.27;;
42146;SDS011;27815;43.410;11.852;2024-03-23T06:19:48;25.20;;;15.80;;
42146;SDS011;27815;43.410;11.852;2024-03-23T06:23:53;30.08;;;17.92;;
42146;SDS011;27815;43.410;11.852;2024-03-23T06:27:55;25.13;;;15.77;;
42146;SDS011;27815;43.410;11.852;2024-03-23T06:31:57;29.10;;;16.88;;
42146;SDS011;27815;43.410;11.852;2024-03-23T06:35:59;26.83;;;17.25;;
42146;SDS011;27815;43.410;11.852;2024-03-23T06:40:01;24.30;;;16.63;;
42146;SDS011;27815;43.410;11.852;2024-03-23T06:44:03;32.60;;;19.02;;
42146;SDS011;27815;43.410;11.852;2024-03-23T06:48:05;33.05;;;18.85;;
42146;SDS011;27815;43.410;11.852;2024-03-23T06:52:09;53.92;;;17.92;;
42146;SDS011;27815;43.410;11.852;2024-03-23T06:56:11;81.50;;;18.23;;
42146;SDS011;27815;43.410;11.852;2024-03-23T07:00:13;100.95;;;18.95;;
42146;SDS011;27815;43.410;11.852;2024-03-23T07:04:17;67.88;;;17.10;;
42146;SDS011;27815;43.410;11.852;2024-03-23T07:08:19;101.93;;;21.95;;
42146;SDS011;27815;43.410;11.852;2024-03-23T07:12:23;56.40;;;22.33;;
42146;SDS011;27815;43.410;11.852;2024-03-23T07:16:26;70.20;;;22.23;;
42146;SDS011;27815;43.410;11.852;2024-03-23T07:20:28;67.80;;;22.63;;
42146;SDS011;27815;43.410;11.852;2024-03-23T07:24:31;86.13;;;32.72;;
42146;SDS011;27815;43.410;11.852;2024-03-23T07:28:34;53.80;;;27.75;;
42146;SDS011;27815;43.410;11.852;2024-03-23T07:32:37;42.15;;;20.85;;
42146;SDS011;27815;43.410;11.852;2024-03-23T07:36:39;41.67;;;24.45;;
42146;SDS011;27815;43.410;11.852;2024-03-23T07:40:41;35.75;;;21.52;;
42146;SDS011;27815;43.410;11.852;2024-03-23T07:44:43;39.63;;;24.20;;
42146;SDS011;27815;43.410;11.852;2024-03-23T07:48:46;57.05;;;36.03;;
42146;SDS011;27815;43.410;11.852;2024-03-23T07:52:48;38.78;;;22.05;;
42146;SDS011;27815;43.410;11.852;2024-03-23T07:56:50;22.75;;;14.65;;
42146;SDS011;27815;43.410;11.852;2024-03-23T08:00:55;62.80;;;32.95;;
42146;SDS011;27815;43.410;11.852;2024-03-23T08:04:57;25.47;;;17.43;;
42146;SDS011;27815;43.410;11.852;2024-03-23T08:08:59;25.13;;;18.15;;
42146;SDS011;27815;43.410;11.852;2024-03-23T08:13:01;24.52;;;16.88;;
42146;SDS011;27815;43.410;11.852;2024-03-23T08:17:03;26.77;;;19.27;;
42146;SDS011;27815;43.410;11.852;2024-03-23T08:21:05;34.30;;;24.20;;
42146;SDS011;27815;43.410;11.852;2024-03-23T08:25:07;22.30;;;14.82;;
42146;SDS011;27815;43.410;11.852;2024-03-23T08:29:09;21.83;;;13.48;;
42146;SDS011;27815;43.410;11.852;2024-03-23T08:33:11;21.70;;;14.93;;
42146;SDS011;27815;43.410;11.852;2024-03-23T08:37:12;18.75;;;13.25;;
42146;SDS011;27815;43.410;11.852;2024-03-23T08:41:14;19.15;;;10.98;;
42146;SDS011;27815;43.410;11.852;2024-03-23T08:45:16;12.82;;;8.60;;
42146;SDS011;27815;43.410;11.852;2024-03-23T08:49:18;12.20;;;8.90;;
42146;SDS011;27815;43.410;11.852;2024-03-23T08:53:21;33.72;;;18.38;;
42146;SDS011;27815;43.410;11.852;2024-03-23T08:57:23;56.08;;;26.25;;
42146;SDS011;27815;43.410;11.852;2024-03-23T09:01:25;19.73;;;13.02;;
42146;SDS011;27815;43.410;11.852;2024-03-23T09:05:27;13.27;;;9.82;;
42146;SDS011;27815;43.410;11.852;2024-03-23T09:09:29;25.55;;;14.15;;
42146;SDS011;27815;43.410;11.852;2024-03-23T09:13:35;15.77;;;11.23;;
42146;SDS011;27815;43.410;11.852;2024-03-23T09:17:37;68.30;;;38.23;;
42146;SDS011;27815;43.410;11.852;2024-03-23T09:21:39;21.40;;;14.52;;
42146;SDS011;27815;43.410;11.852;2024-03-23T09:25:41;25.08;;;17.85;;
42146;SDS011;27815;43.410;11.852;2024-03-23T09:29:43;16.92;;;11.68;;
42146;SDS011;27815;43.410;11.852;2024-03-23T09:33:44;63.22;;;34.20;;
42146;SDS011;27815;43.410;11.852;2024-03-23T09:37:46;14.05;;;9.98;;
42146;SDS011;27815;43.410;11.852;2024-03-23T09:41:48;10.25;;;6.22;;
42146;SDS011;27815;43.410;11.852;2024-03-23T09:45:50;16.20;;;9.35;;
42146;SDS011;27815;43.410;11.852;2024-03-23T09:49:52;8.48;;;5.38;;
42146;SDS011;27815;43.410;11.852;2024-03-23T09:53:55;10.32;;;7.10;;
42146;SDS011;27815;43.410;11.852;2024-03-23T09:57:58;8.68;;;5.75;;
42146;SDS011;27815;43.410;11.852;2024-03-23T10:02:01;9.70;;;5.55;;
42146;SDS011;27815;43.410;11.852;2024-03-23T10:06:03;9.15;;;5.65;;
42146;SDS011;27815;43.410;11.852;2024-03-23T10:10:10;7.63;;;5.63;;
42146;SDS011;27815;43.410;11.852;2024-03-23T10:14:12;8.95;;;5.78;;
42146;SDS011;27815;43.410;11.852;2024-03-23T10:18:30;10.85;;;5.30;;
42146;SDS011;27815;43.410;11.852;2024-03-23T10:22:36;9.02;;;5.63;;
42146;SDS011;27815;43.410;11.852;2024-03-23T10:26:40;34.63;;;16.55;;
42146;SDS011;27815;43.410;11.852;2024-03-23T10:30:42;15.27;;;8.38;;
42146;SDS011;27815;43.410;11.852;2024-03-23T10:34:45;11.13;;;6.20;;
42146;SDS011;27815;43.410;11.852;2024-03-23T10:38:47;13.55;;;7.47;;
42146;SDS011;27815;43.410;11.852;2024-03-23T10:42:50;12.05;;;6.78;;
42146;SDS011;27815;43.410;11.852;2024-03-23T10:47:06;6.25;;;4.13;;
42146;SDS011;27815;43.410;11.852;2024-03-23T10:51:08;7.03;;;3.80;;
42146;SDS011;27815;43.410;11.852;2024-03-23T10:55:13;5.13;;;3.20;;
42146;SDS011;27815;43.410;11.852;2024-03-23T10:59:19;4.23;;;3.23;;
42146;SDS011;27815;43.410;11.852;2024-03-23T11:07:36;6.30;;;3.72;;
42146;SDS011;27815;43.410;11.852;2024-03-23T11:11:38;6.78;;;4.63;;
42146;SDS011;27815;43.410;11.852;2024-03-23T11:15:40;4.57;;;3.13;;
42146;SDS011;27815;43.410;11.852;2024-03-23T11:19:41;6.15;;;4.00;;
42146;SDS011;27815;43.410;11.852;2024-03-23T11:23:43;10.18;;;6.15;;
42146;SDS011;27815;43.410;11.852;2024-03-23T11:27:45;5.00;;;2.80;;
42146;SDS011;27815;43.410;11.852;2024-03-23T11:31:49;19.70;;;9.38;;
42146;SDS011;27815;43.410;11.852;2024-03-23T11:35:52;4.53;;;2.30;;
42146;SDS011;27815;43.410;11.852;2024-03-23T11:39:54;21.77;;;9.88;;
42146;SDS011;27815;43.410;11.852;2024-03-23T11:43:56;27.63;;;14.13;;
42146;SDS011;27815;43.410;11.852;2024-03-23T11:48:01;7.55;;;2.92;;
42146;SDS011;27815;43.410;11.852;2024-03-23T11:52:05;6.68;;;3.40;;
42146;SDS011;27815;43.410;11.852;2024-03-23T11:56:08;19.55;;;7.20;;
42146;SDS011;27815;43.410;11.852;2024-03-23T12:00:20;20.27;;;11.23;;
42146;SDS011;27815;43.410;11.852;2024-03-23T12:04:26;5.30;;;3.17;;
42146;SDS011;27815;43.410;11.852;2024-03-23T12:08:33;6.25;;;3.45;;
42146;SDS011;27815;43.410;11.852;2024-03-23T12:12:36;8.65;;;5.32;;
42146;SDS011;27815;43.410;11.852;2024-03-23T12:16:38;10.10;;;4.97;;
42146;SDS011;27815;43.410;11.852;2024-03-23T12:20:40;5.90;;;2.75;;
42146;SDS011;27815;43.410;11.852;2024-03-23T12:24:42;4.85;;;3.08;;
42146;SDS011;27815;43.410;11.852;2024-03-23T12:28:46;12.90;;;6.13;;
42146;SDS011;27815;43.410;11.852;2024-03-23T12:32:48;7.85;;;4.45;;
42146;SDS011;27815;43.410;11.852;2024-03-23T12:36:50;6.13;;;3.45;;
42146;SDS011;27815;43.410;11.852;2024-03-23T12:40:52;5.88;;;3.08;;
42146;SDS011;27815;43.410;11.852;2024-03-23T12:44:53;4.10;;;2.50;;
42146;SDS011;27815;43.410;11.852;2024-03-23T12:48:55;5.35;;;3.03;;
42146;SDS011;27815;43.410;11.852;2024-03-23T12:52:57;5.50;;;2.55;;
42146;SDS011;27815;43.410;11.852;2024-03-23T12:56:59;6.50;;;3.47;;
42146;SDS011;27815;43.410;11.852;2024-03-23T13:01:01;7.38;;;3.22;;
42146;SDS011;27815;43.410;11.852;2024-03-23T13:05:03;4.00;;;2.50;;
42146;SDS011;27815;43.410;11.852;2024-03-23T13:09:05;4.32;;;2.45;;
42146;SDS011;27815;43.410;11.852;2024-03-23T13:13:07;3.25;;;2.22;;
42146;SDS011;27815;43.410;11.852;2024-03-23T13:17:09;24.65;;;7.72;;
42146;SDS011;27815;43.410;11.852;2024-03-23T13:21:11;109.78;;;29.90;;
42146;SDS011;27815;43.410;11.852;2024-03-23T13:25:13;25.75;;;6.28;;
42146;SDS011;27815;43.410;11.852;2024-03-23T13:29:15;4.95;;;2.40;;
42146;SDS011;27815;43.410;11.852;2024-03-23T13:33:17;3.25;;;2.22;;
42146;SDS011;27815;43.410;11.852;2024-03-23T13:37:18;25.95;;;13.25;;
42146;SDS011;27815;43.410;11.852;2024-03-23T13:41:20;12.15;;;6.05;;
42146;SDS011;27815;43.410;11.852;2024-03-23T13:45:22;10.13;;;6.20;;
42146;SDS011;27815;43.410;11.852;2024-03-23T13:49:28;6.25;;;3.55;;
42146;SDS011;27815;43.410;11.852;2024-03-23T13:53:31;3.80;;;2.13;;
42146;SDS011;27815;43.410;11.852;2024-03-23T13:57:36;16.15;;;5.00;;
42146;SDS011;27815;43.410;11.852;2024-03-23T14:01:38;4.13;;;2.50;;
42146;SDS011;27815;43.410;11.852;2024-03-23T14:05:40;3.40;;;2.03;;
42146;SDS011;27815;43.410;11.852;2024-03-23T14:09:42;4.20;;;2.38;;
42146;SDS011;27815;43.410;11.852;2024-03-23T14:13:44;3.70;;;2.00;;
42146;SDS011;27815;43.410;11.852;2024-03-23T14:17:46;4.75;;;2.30;;
42146;SDS011;27815;43.410;11.852;2024-03-23T14:21:47;3.25;;;1.75;;
42146;SDS011;27815;43.410;11.852;2024-03-23T14:25:49;5.05;;;2.33;;
42146;SDS011;27815;43.410;11.852;2024-03-23T14:29:53;5.20;;;2.63;;
42146;SDS011;27815;43.410;11.852;2024-03-23T14:33:55;6.47;;;2.88;;
42146;SDS011;27815;43.410;11.852;2024-03-23T14:37:56;3.53;;;1.75;;
42146;SDS011;27815;43.410;11.852;2024-03-23T14:41:58;4.88;;;2.40;;
42146;SDS011;27815;43.410;11.852;2024-03-23T14:46:10;4.57;;;2.17;;
42146;SDS011;27815;43.410;11.852;2024-03-23T14:50:18;4.57;;;1.90;;
42146;SDS011;27815;43.410;11.852;2024-03-23T14:54:20;5.68;;;2.60;;
42146;SDS011;27815;43.410;11.852;2024-03-23T14:58:22;6.30;;;2.47;;
42146;SDS011;27815;43.410;11.852;2024-03-23T15:02:25;4.32;;;2.63;;
42146;SDS011;27815;43.410;11.852;2024-03-23T15:06:30;5.70;;;3.08;;
42146;SDS011;27815;43.410;11.852;2024-03-23T15:10:35;6.10;;;2.50;;
42146;SDS011;27815;43.410;11.852;2024-03-23T15:14:36;4.47;;;2.30;;
42146;SDS011;27815;43.410;11.852;2024-03-23T15:18:38;7.68;;;3.08;;
42146;SDS011;27815;43.410;11.852;2024-03-23T15:22:40;7.68;;;3.50;;
42146;SDS011;27815;43.410;11.852;2024-03-23T15:26:43;5.28;;;2.70;;
42146;SDS011;27815;43.410;11.852;2024-03-23T15:30:45;9.20;;;3.38;;
42146;SDS011;27815;43.410;11.852;2024-03-23T15:34:47;6.32;;;2.22;;
42146;SDS011;27815;43.410;11.852;2024-03-23T15:38:48;4.85;;;2.08;;
42146;SDS011;27815;43.410;11.852;2024-03-23T15:42:50;3.83;;;2.00;;
42146;SDS011;27815;43.410;11.852;2024-03-23T15:46:52;9.70;;;2.92;;
42146;SDS011;27815;43.410;11.852;2024-03-23T15:50:55;4.13;;;1.95;;
42146;SDS011;27815;43.410;11.852;2024-03-23T15:54:58;7.78;;;2.97;;
42146;SDS011;27815;43.410;11.852;2024-03-23T15:59:01;5.15;;;1.98;;
42146;SDS011;27815;43.410;11.852;2024-03-23T16:03:09;4.70;;;2.30;;
42146;SDS011;27815;43.410;11.852;2024-03-23T16:07:11;5.07;;;2.60;;
42146;SDS011;27815;43.410;11.852;2024-03-23T16:11:14;4.90;;;2.67;;
42146;SDS011;27815;43.410;11.852;2024-03-23T16:15:16;4.18;;;2.67;;
42146;SDS011;27815;43.410;11.852;2024-03-23T16:19:18;4.43;;;2.85;;
42146;SDS011;27815;43.410;11.852;2024-03-23T16:23:20;5.22;;;3.10;;
42146;SDS011;27815;43.410;11.852;2024-03-23T16:27:22;5.40;;;3.53;;
42146;SDS011;27815;43.410;11.852;2024-03-23T16:31:24;6.15;;;4.05;;
42146;SDS011;27815;43.410;11.852;2024-03-23T16:35:26;4.97;;;3.47;;
42146;SDS011;27815;43.410;11.852;2024-03-23T16:39:27;5.18;;;3.60;;
42146;SDS011;27815;43.410;11.852;2024-03-23T16:43:29;6.78;;;3.85;;
42146;SDS011;27815;43.410;11.852;2024-03-23T16:47:31;8.05;;;4.78;;
42146;SDS011;27815;43.410;11.852;2024-03-23T16:51:35;6.28;;;3.58;;
42146;SDS011;27815;43.410;11.852;2024-03-23T16:55:37;7.18;;;3.75;;
42146;SDS011;27815;43.410;11.852;2024-03-23T16:59:39;8.13;;;3.38;;
42146;SDS011;27815;43.410;11.852;2024-03-23T17:03:41;10.10;;;3.75;;
42146;SDS011;27815;43.410;11.852;2024-03-23T17:07:43;8.32;;;4.22;;
42146;SDS011;27815;43.410;11.852;2024-03-23T17:11:45;7.80;;;3.50;;
42146;SDS011;27815;43.410;11.852;2024-03-23T17:15:47;6.30;;;3.67;;
42146;SDS011;27815;43.410;11.852;2024-03-23T17:19:49;5.65;;;3.42;;
42146;SDS011;27815;43.410;11.852;2024-03-23T17:24:00;7.88;;;3.78;;
42146;SDS011;27815;43.410;11.852;2024-03-23T17:28:02;7.50;;;4.47;;
42146;SDS011;27815;43.410;11.852;2024-03-23T17:32:04;12.50;;;6.30;;
42146;SDS011;27815;43.410;11.852;2024-03-23T17:36:06;9.70;;;4.90;;
42146;SDS011;27815;43.410;11.852;2024-03-23T17:40:08;7.38;;;4.03;;
42146;SDS011;27815;43.410;11.852;2024-03-23T17:44:11;7.82;;;3.65;;
42146;SDS011;27815;43.410;11.852;2024-03-23T17:48:13;8.55;;;4.50;;
42146;SDS011;27815;43.410;11.852;2024-03-23T17:52:15;11.20;;;5.05;;
42146;SDS011;27815;43.410;11.852;2024-03-23T17:56:17;8.65;;;4.53;;
42146;SDS011;27815;43.410;11.852;2024-03-23T18:00:19;8.43;;;4.30;;
42146;SDS011;27815;43.410;11.852;2024-03-23T18:04:21;9.13;;;4.68;;
42146;SDS011;27815;43.410;11.852;2024-03-23T18:08:23;10.13;;;4.68;;
42146;SDS011;27815;43.410;11.852;2024-03-23T18:12:25;9.70;;;5.10;;
42146;SDS011;27815;43.410;11.852;2024-03-23T18:29:54;9.20;;;4.90;;
42146;SDS011;27815;43.410;11.852;2024-03-23T18:33:56;11.05;;;5.18;;
42146;SDS011;27815;43.410;11.852;2024-03-23T18:37:58;9.65;;;5.65;;
42146;SDS011;27815;43.410;11.852;2024-03-23T18:42:00;9.32;;;4.95;;
42146;SDS011;27815;43.410;11.852;2024-03-23T18:46:02;9.63;;;5.72;;
42146;SDS011;27815;43.410;11.852;2024-03-23T18:50:05;10.98;;;5.80;;
42146;SDS011;27815;43.410;11.852;2024-03-23T18:54:06;12.38;;;5.93;;
42146;SDS011;27815;43.410;11.852;2024-03-23T18:58:09;9.40;;;4.90;;
42146;SDS011;27815;43.410;11.852;2024-03-23T19:02:11;10.88;;;5.90;;
42146;SDS011;27815;43.410;11.852;2024-03-23T19:06:16;10.43;;;4.60;;
42146;SDS011;27815;43.410;11.852;2024-03-23T19:10:18;8.95;;;5.03;;
42146;SDS011;27815;43.410;11.852;2024-03-23T19:14:23;9.32;;;4.97;;
42146;SDS011;27815;43.410;11.852;2024-03-23T19:18:25;10.50;;;5.95;;
42146;SDS011;27815;43.410;11.852;2024-03-23T19:22:30;15.98;;;5.88;;
42146;SDS011;27815;43.410;11.852;2024-03-23T19:26:33;13.95;;;6.88;;
42146;SDS011;27815;43.410;11.852;2024-03-23T19:30:35;15.50;;;7.10;;
42146;SDS011;27815;43.410;11.852;2024-03-23T19:34:36;8.95;;;4.78;;
42146;SDS011;27815;43.410;11.852;2024-03-23T19:38:38;10.27;;;4.75;;
42146;SDS011;27815;43.410;11.852;2024-03-23T19:42:40;11.70;;;4.97;;
42146;SDS011;27815;43.410;11.852;2024-03-23T19:46:43;11.18;;;6.03;;
42146;SDS011;27815;43.410;11.852;2024-03-23T19:50:53;8.07;;;3.92;;
42146;SDS011;27815;43.410;11.852;2024-03-23T19:54:59;11.23;;;5.93;;
42146;SDS011;27815;43.410;11.852;2024-03-23T19:59:00;15.45;;;6.13;;
42146;SDS011;27815;43.410;11.852;2024-03-23T20:03:03;11.25;;;6.00;;
42146;SDS011;27815;43.410;11.852;2024-03-23T20:07:07;9.73;;;5.65;;
42146;SDS011;27815;43.410;11.852;2024-03-23T20:11:10;11.77;;;5.47;;
42146;SDS011;27815;43.410;11.852;2024-03-23T20:15:12;6.20;;;4.28;;
42146;SDS011;27815;43.410;11.852;2024-03-23T20:19:13;11.98;;;4.97;;
42146;SDS011;27815;43.410;11.852;2024-03-23T20:23:16;10.00;;;4.50;;
42146;SDS011;27815;43.410;11.852;2024-03-23T20:27:20;9.15;;;4.50;;
42146;SDS011;27815;43.410;11.852;2024-03-23T20:31:23;6.97;;;3.70;;
42146;SDS011;27815;43.410;11.852;2024-03-23T20:35:25;8.43;;;5.38;;
42146;SDS011;27815;43.410;11.852;2024-03-23T20:39:26;7.80;;;4.05;;
42146;SDS011;27815;43.410;11.852;2024-03-23T20:43:28;8.05;;;4.20;;
42146;SDS011;27815;43.410;11.852;2024-03-23T20:47:30;11.40;;;4.28;;
42146;SDS011;27815;43.410;11.852;2024-03-23T20:51:32;7.47;;;3.75;;
42146;SDS011;27815;43.410;11.852;2024-03-23T20:55:34;7.60;;;3.65;;
42146;SDS011;27815;43.410;11.852;2024-03-23T20:59:36;7.63;;;4.45;;
42146;SDS011;27815;43.410;11.852;2024-03-23T21:03:38;7.60;;;3.40;;
42146;SDS011;27815;43.410;11.852;2024-03-23T21:07:39;6.63;;;3.75;;
42146;SDS011;27815;43.410;11.852;2024-03-23T21:11:41;10.60;;;4.32;;
42146;SDS011;27815;43.410;11.852;2024-03-23T21:15:47;7.47;;;4.05;;
42146;SDS011;27815;43.410;11.852;2024-03-23T21:20:01;8.30;;;4.10;;
42146;SDS011;27815;43.410;11.852;2024-03-23T21:24:03;7.65;;;4.03;;
42146;SDS011;27815;43.410;11.852;2024-03-23T21:28:05;9.38;;;3.92;;
42146;SDS011;27815;43.410;11.852;2024-03-23T21:32:09;9.40;;;3.70;;
42146;SDS011;27815;43.410;11.852;2024-03-23T21:36:10;6.28;;;3.80;;
42146;SDS011;27815;43.410;11.852;2024-03-23T21:40:12;9.05;;;4.10;;
42146;SDS011;27815;43.410;11.852;2024-03-23T21:44:14;6.57;;;3.58;;
42146;SDS011;27815;43.410;11.852;2024-03-23T21:48:16;7.53;;;4.43;;
42146;SDS011;27815;43.410;11.852;2024-03-23T21:52:18;8.80;;;4.65;;
42146;SDS011;27815;43.410;11.852;2024-03-23T21:56:20;6.70;;;4.70;;
42146;SDS011;27815;43.410;11.852;2024-03-23T22:00:22;8.55;;;4.00;;
42146;SDS011;27815;43.410;11.852;2024-03-23T22:04:24;10.25;;;4.72;;
42146;SDS011;27815;43.410;11.852;2024-03-23T22:08:26;9.57;;;5.03;;
42146;SDS011;27815;43.410;11.852;2024-03-23T22:12:27;4.50;;;3.15;;
42146;SDS011;27815;43.410;11.852;2024-03-23T22:16:29;9.32;;;4.55;;
42146;SDS011;27815;43.410;11.852;2024-03-23T22:20:31;11.30;;;4.97;;
42146;SDS011;27815;43.410;11.852;2024-03-23T22:24:36;7.53;;;4.18;;
42146;SDS011;27815;43.410;11.852;2024-03-23T22:28:38;10.02;;;3.83;;
42146;SDS011;27815;43.410;11.852;2024-03-23T22:32:43;8.48;;;4.40;;
42146;SDS011;27815;43.410;11.852;2024-03-23T22:36:46;7.07;;;4.55;;
42146;SDS011;27815;43.410;11.852;2024-03-23T22:40:58;8.88;;;4.35;;
42146;SDS011;27815;43.410;11.852;2024-03-23T22:45:02;8.00;;;4.32;;
42146;SDS011;27815;43.410;11.852;2024-03-23T22:49:05;7.85;;;3.72;;
42146;SDS011;27815;43.410;11.852;2024-03-23T22:53:07;9.13;;;4.25;;
42146;SDS011;27815;43.410;11.852;2024-03-23T22:57:09;6.50;;;3.83;;
42146;SDS011;27815;43.410;11.852;2024-03-23T23:01:11;8.93;;;4.10;;
42146;SDS011;27815;43.410;11.852;2024-03-23T23:05:13;7.38;;;3.15;;
42146;SDS011;27815;43.410;11.852;2024-03-23T23:09:16;8.93;;;4.47;;
42146;SDS011;27815;43.410;11.852;2024-03-23T23:13:18;9.18;;;4.40;;
42146;SDS011;27815;43.410;11.852;2024-03-23T23:17:20;10.45;;;4.03;;
42146;SDS011;27815;43.410;11.852;2024-03-23T23:21:22;9.20;;;4.15;;
42146;SDS011;27815;43.410;11.852;2024-03-23T23:25:24;8.80;;;4.07;;
42146;SDS011;27815;43.410;11.852;2024-03-23T23:29:27;7.82;;;3.83;;
42146;SDS011;27815;43.410;11.852;2024-03-23T23:33:29;9.48;;;4.78;;
42146;SDS011;27815;43.410;11.852;2024-03-23T23:37:31;9.00;;;4.47;;
42146;SDS011;27815;43.410;11.852;2024-03-23T23:41:33;10.77;;;4.88;;
42146;SDS011;27815;43.410;11.852;2024-03-23T23:45:39;8.38;;;4.22;;
42146;SDS011;27815;43.410;11.852;2024-03-23T23:49:41;10.70;;;6.03;;
42146;SDS011;27815;43.410;11.852;2024-03-23T23:53:43;10.00;;;5.85;;
42146;SDS011;27815;43.410;11.852;2024-03-23T23:57:45;13.93;;;6.45;;
